CNJ3 weather

Fort Erie Airport
Fort Erie, Ontario, Canada

Public forecast

Using degrees Celsius for public forecast. Weather courtesy of forecast.io.

METAR (pilot weather report)

Closest report is Buffalo Niagara International Airport, 10.0 nm (18.5 km) E. Retrieved 2019/06/17 19:54 UTC (8 minutes ago):

KBUF 171954Z 07005KT 10SM FEW045 SCT090 BKN270 24/13 A2998 RMK AO2 SLP152 T02440133

TAF (pilot weather forecast)

Closest forecast is Buffalo Niagara International Airport, 10.0 nm (18.5 km) E. Retrieved 2019/06/17 18:42 UTC (1 hour ago):

TAF KBUF 171740Z 1718/1818 07008KT P6SM FEW040 BKN250 FM180200 05004KT P6SM BKN060 FM181500 02006KT P6SM BKN100